LELN/LEN METAR and TAF weather

Enter ICAO airport designator
Station Type Date Time Source
LELN METAR 2021/05/14 22:00 UTC NOAA

LELN 142200Z AUTO 25010KT 210V280 CAVOK 12/07 Q1017


Station Type Date Time Source
LELN Decoded METAR 2021/05/14 22:00 UTC NOAA

Leon / Virgen Del Camino, Spain (LELN) 42-35N 005-39W 914M
May 14, 2021 - 06:00 PM EDT / 2021.05.14 2200 UTC
Wind: from the WSW (250 degrees) at 12 MPH (10 KT) (direction variable):0
Visibility: greater than 7 mile(s):0
Temperature: 53 F (12 C)
Dew Point: 44 F (7 C)
Relative Humidity: 71%
Pressure (altimeter): 30.03 in. Hg (1017 hPa)
ob: LELN 142200Z AUTO 25010KT 210V280 CAVOK 12/07 Q1017
cycle: 22

Station Type Date Time Source
LELN TAF 2021/05/14 21:27 UTC NOAA

TAF LELN 142000Z 1421/1521 27010KT CAVOK TX21/1515Z TN09/1505Z PROB40
TEMPO 1421/1505 27012G25KT
TEMPO 1505/1509 VRB05KT PROB40
TEMPO 1503/1515 BKN010 PROB40
TEMPO 1511/1518 27015G27KT

Example: see airport list